Time;durP1;ratioP1;P1;durP2;ratioP2;P2;SDS_P1;SDS_P2;PMS_P1;PMS_P2;Temp;Humidity;BMP_temperature;BMP_pressure;BME280_temperature;BME280_humidity;BME280_pressure;Samples;Min_cycle;Max_cycle;Signal;HPM_P1;HPM_P2
2022/05/10 00:00:01;;;;;;;6.82;5.80;;;;;;;15.41;53.81;100893.81;8612830;33;20517;-74
2022/05/10 00:05:06;;;;;;;7.13;5.63;;;;;;;15.29;54.04;100884.09;8618974;33;20761;-74
2022/05/10 00:10:11;;;;;;;8.43;5.60;;;;;;;15.23;54.13;100880.97;8606506;33;20508;-74
2022/05/10 00:15:14;;;;;;;7.53;5.60;;;;;;;15.22;54.43;100875.69;8611524;33;20465;-74
2022/05/10 00:20:24;;;;;;;10.25;5.63;;;;;;;15.17;54.30;100873.44;8608293;33;21019;-74
2022/05/10 00:25:31;;;;;;;7.40;5.38;;;;;;;15.09;54.21;100862.47;8615695;33;20152;-74
2022/05/10 00:30:34;;;;;;;7.28;6.28;;;;;;;15.03;54.57;100866.59;8576457;33;20555;-74
2022/05/10 00:35:37;;;;;;;7.47;5.15;;;;;;;14.95;54.95;100860.19;8628705;33;20159;-74
2022/05/10 00:40:41;;;;;;;9.10;5.22;;;;;;;14.82;55.17;100845.06;8624139;33;20152;-74
2022/05/10 00:45:53;;;;;;;11.57;5.90;;;;;;;14.79;55.31;100842.66;8602852;33;20441;-74
2022/05/10 00:51:05;;;;;;;8.18;5.32;;;;;;;14.69;55.79;100849.88;8602797;33;20766;-72
2022/05/10 00:56:17;;;;;;;8.63;5.82;;;;;;;14.62;56.02;100846.06;8578960;33;20239;-75
2022/05/10 01:01:29;;;;;;;6.40;5.15;;;;;;;14.50;56.29;100839.88;8609444;33;20182;-75
2022/05/10 01:06:40;;;;;;;8.80;6.20;;;;;;;14.50;56.49;100834.47;8572106;33;20405;-73
2022/05/10 01:11:51;;;;;;;6.55;5.85;;;;;;;14.52;56.76;100837.06;8600730;33;20438;-75
2022/05/10 01:16:56;;;;;;;7.60;5.57;;;;;;;14.66;56.71;100835.81;8616714;33;20499;-75
2022/05/10 01:22:18;;;;;;;8.60;5.75;;;;;;;14.70;56.31;100821.00;8622750;33;20447;-74
2022/05/10 01:27:39;;;;;;;9.18;5.68;;;;;;;14.74;56.07;100817.88;8572486;33;20630;-74
2022/05/10 01:38:33;;;;;;;9.55;5.70;;;;;;;14.84;55.69;100826.00;8575567;33;20914;-74
2022/05/10 01:43:43;;;;;;;8.73;6.82;;;;;;;14.72;56.27;100811.75;8622706;33;20150;-75
2022/05/10 01:48:53;;;;;;;6.88;5.95;;;;;;;14.57;56.95;100818.56;8602584;33;20243;-74
2022/05/10 01:53:56;;;;;;;9.52;6.00;;;;;;;14.41;56.98;100816.41;8594433;33;20185;-74
2022/05/10 01:58:59;;;;;;;7.03;5.78;;;;;;;14.36;57.56;100808.66;8609392;33;20238;-74
2022/05/10 02:04:10;;;;;;;7.65;6.07;;;;;;;14.21;57.79;100810.06;8620472;33;20171;-74
2022/05/10 02:09:22;;;;;;;7.13;5.82;;;;;;;14.08;58.28;100807.59;8602605;33;20165;-74
2022/05/10 02:14:29;;;;;;;9.30;6.13;;;;;;;13.96;58.86;100803.31;8599312;33;20314;-74
2022/05/10 02:19:40;;;;;;;8.18;6.35;;;;;;;13.92;59.08;100802.72;8599861;33;20161;-74
2022/05/10 02:24:53;;;;;;;9.50;6.25;;;;;;;13.90;58.90;100791.22;8576910;33;20440;-74
2022/05/10 02:30:04;;;;;;;8.27;6.28;;;;;;;13.75;59.51;100786.31;8603463;33;20156;-74
2022/05/10 02:35:13;;;;;;;9.25;6.70;;;;;;;13.60;59.98;100778.56;8619358;33;20143;-74
2022/05/10 02:40:16;;;;;;;7.57;6.25;;;;;;;13.58;60.14;100766.19;8618566;33;20151;-75
2022/05/10 02:45:21;;;;;;;7.97;6.45;;;;;;;13.61;60.08;100758.66;8573920;33;20253;-74
2022/05/10 02:50:28;;;;;;;11.20;6.45;;;;;;;13.59;60.35;100757.09;8591317;33;20190;-74
2022/05/10 02:55:37;;;;;;;7.07;6.15;;;;;;;13.60;60.32;100761.50;8605609;33;20547;-74
2022/05/10 03:00:41;;;;;;;9.18;6.05;;;;;;;13.56;60.24;100760.91;8574147;33;20525;-74
2022/05/10 03:05:46;;;;;;;8.25;6.30;;;;;;;13.56;60.51;100751.97;8594344;33;21104;-74
2022/05/10 03:10:49;;;;;;;10.82;6.65;;;;;;;13.57;60.33;100749.13;8594188;33;20279;-74
2022/05/10 03:15:52;;;;;;;7.72;6.45;;;;;;;13.54;60.49;100738.59;8602718;28;20186;-74
2022/05/10 03:20:57;;;;;;;10.55;6.68;;;;;;;13.51;61.03;100746.13;8567110;33;20468;-73
2022/05/10 03:26:00;;;;;;;8.65;6.47;;;;;;;13.44;61.01;100743.97;8593647;33;20590;-74
2022/05/10 03:31:14;;;;;;;8.82;6.50;;;;;;;13.55;60.68;100750.25;8630816;33;20555;-74
2022/05/10 03:36:18;;;;;;;9.73;6.75;;;;;;;13.58;60.53;100744.59;8641059;33;21014;-74
2022/05/10 03:41:21;;;;;;;10.98;6.93;;;;;;;13.57;60.54;100743.72;8596187;33;20433;-74
2022/05/10 03:46:25;;;;;;;11.18;7.57;;;;;;;13.51;60.79;100736.16;8611287;33;20442;-74
2022/05/10 03:51:30;;;;;;;10.68;6.57;;;;;;;13.35;61.02;100742.00;8608128;33;20426;-73
2022/05/10 03:56:34;;;;;;;11.07;6.97;;;;;;;13.24;61.28;100742.09;8619435;33;20315;-74
2022/05/10 04:01:40;;;;;;;11.45;7.45;;;;;;;13.34;61.30;100728.69;8609986;33;20179;-75
2022/05/10 04:06:44;;;;;;;9.65;6.85;;;;;;;13.33;61.36;100735.94;8593182;33;20151;-73
2022/05/10 04:11:49;;;;;;;11.48;8.40;;;;;;;13.40;60.93;100728.16;8578438;33;20414;-75
2022/05/10 04:16:53;;;;;;;9.25;7.00;;;;;;;13.41;61.17;100727.16;8601265;33;21173;-74
2022/05/10 04:21:57;;;;;;;10.85;7.05;;;;;;;13.49;61.18;100733.63;8597509;33;20187;-74
2022/05/10 04:27:01;;;;;;;8.88;6.75;;;;;;;13.54;60.87;100733.19;8616091;33;20491;-74
2022/05/10 04:32:05;;;;;;;10.38;7.20;;;;;;;13.50;60.87;100737.19;8587765;33;20408;-74
2022/05/10 04:37:11;;;;;;;10.80;7.20;;;;;;;13.58;61.16;100731.94;8610026;33;20543;-74
2022/05/10 04:42:14;;;;;;;12.27;7.32;;;;;;;13.70;60.81;100740.81;8611418;33;20278;-74
2022/05/10 04:47:17;;;;;;;10.77;7.85;;;;;;;13.82;60.45;100738.84;8620277;33;20246;-74
2022/05/10 04:52:21;;;;;;;10.80;8.15;;;;;;;13.98;60.08;100741.88;8567095;33;20216;-74
2022/05/10 04:57:24;;;;;;;11.00;7.45;;;;;;;14.07;59.68;100740.19;8584985;33;20544;-74
2022/05/10 05:02:27;;;;;;;10.40;7.63;;;;;;;14.21;59.44;100742.53;8595693;33;20420;-74
2022/05/10 05:07:32;;;;;;;10.73;7.00;;;;;;;14.13;59.56;100735.09;8600572;33;20478;-74
2022/05/10 05:12:35;;;;;;;10.35;6.90;;;;;;;14.29;59.38;100741.81;8599877;33;20174;-74
2022/05/10 05:17:38;;;;;;;9.60;7.45;;;;;;;14.44;58.97;100748.56;8584215;33;21007;-74
2022/05/10 05:22:43;;;;;;;11.98;7.22;;;;;;;14.50;58.92;100749.84;8570420;33;20412;-74
2022/05/10 05:27:46;;;;;;;10.40;7.57;;;;;;;14.62;59.13;100756.84;8582747;33;21272;-74
2022/05/10 05:32:51;;;;;;;11.57;7.95;;;;;;;14.79;58.45;100748.00;8568776;33;20151;-74
2022/05/10 05:37:55;;;;;;;10.25;7.75;;;;;;;15.04;57.88;100746.53;8575474;33;20561;-74
2022/05/10 05:42:58;;;;;;;9.50;6.78;;;;;;;15.21;57.74;100747.66;8611931;33;20577;-74
2022/05/10 05:48:02;;;;;;;10.85;7.53;;;;;;;15.42;57.71;100747.50;8623123;33;20507;-74
2022/05/10 05:53:07;;;;;;;13.07;8.27;;;;;;;15.54;57.25;100747.31;8569641;33;20684;-74
2022/05/10 05:58:11;;;;;;;10.93;7.45;;;;;;;15.45;57.77;100746.34;8590383;33;20481;-74
2022/05/10 06:03:14;;;;;;;12.18;8.13;;;;;;;15.60;58.10;100747.56;8602300;33;20243;-74
2022/05/10 06:08:19;;;;;;;9.95;7.65;;;;;;;15.68;57.83;100739.53;8599429;33;20290;-74
2022/05/10 06:13:22;;;;;;;12.40;7.78;;;;;;;15.87;58.17;100735.06;8622639;33;20135;-74
2022/05/10 06:18:25;;;;;;;11.48;7.80;;;;;;;16.07;58.45;100735.78;8602242;33;20415;-74
2022/05/10 06:23:30;;;;;;;12.57;7.97;;;;;;;16.43;57.51;100728.63;8579543;33;20531;-74
2022/05/10 06:28:33;;;;;;;9.82;7.38;;;;;;;16.56;57.15;100737.22;8590587;33;20148;-74
2022/05/10 06:33:36;;;;;;;12.73;8.05;;;;;;;16.66;57.34;100728.13;8598125;33;20387;-74
2022/05/10 06:38:41;;;;;;;13.35;7.65;;;;;;;16.79;57.27;100725.88;8587964;33;20438;-75
2022/05/10 06:43:44;;;;;;;13.50;8.38;;;;;;;16.88;57.33;100730.34;8633119;33;20678;-74
2022/05/10 06:48:54;;;;;;;9.52;8.02;;;;;;;17.22;56.75;100719.63;8598446;33;20423;-75
2022/05/10 06:53:58;;;;;;;9.05;7.53;;;;;;;17.54;56.67;100712.66;8614371;33;20329;-73
2022/05/10 06:59:01;;;;;;;11.13;7.82;;;;;;;17.96;54.99;100717.25;8611009;33;20405;-74
2022/05/10 07:04:07;;;;;;;9.10;7.55;;;;;;;18.14;54.26;100715.31;8612474;33;20543;-73
2022/05/10 07:09:11;;;;;;;13.23;8.25;;;;;;;18.55;54.19;100709.94;8581593;33;20632;-73
2022/05/10 07:14:14;;;;;;;11.10;7.68;;;;;;;18.94;52.68;100694.84;8582381;33;20494;-74
2022/05/10 07:19:17;;;;;;;11.73;8.60;;;;;;;19.11;53.05;100701.09;8591094;33;21394;-74
2022/05/10 07:24:21;;;;;;;12.35;8.23;;;;;;;19.31;52.52;100694.28;8601868;33;21154;-74
2022/05/10 07:29:25;;;;;;;9.15;8.05;;;;;;;19.55;52.13;100693.31;8610240;33;20656;-74
2022/05/10 07:34:28;;;;;;;11.70;8.52;;;;;;;19.92;51.70;100691.84;8628763;33;20183;-73
2022/05/10 07:39:32;;;;;;;13.00;8.60;;;;;;;19.89;51.74;100690.31;8634240;33;20254;-73
2022/05/10 07:44:35;;;;;;;11.65;8.15;;;;;;;20.09;52.02;100684.44;8584490;33;20469;-73
2022/05/10 07:49:39;;;;;;;14.38;9.10;;;;;;;20.32;51.18;100685.34;8613965;33;20143;-75
2022/05/10 07:54:49;;;;;;;10.88;9.02;;;;;;;20.61;51.73;100683.75;8604145;33;20453;-75
2022/05/10 07:59:52;;;;;;;11.07;8.30;;;;;;;20.82;48.48;100677.59;8591830;33;20171;-74
2022/05/10 08:04:55;;;;;;;10.30;7.97;;;;;;;21.11;47.42;100673.25;8593227;33;20982;-74
2022/05/10 08:09:59;;;;;;;10.60;7.88;;;;;;;21.86;46.57;100666.75;8634519;33;20298;-74
2022/05/10 08:15:02;;;;;;;8.50;7.70;;;;;;;21.80;43.60;100665.66;8619284;33;20711;-74
2022/05/10 08:20:07;;;;;;;9.88;8.13;;;;;;;22.00;42.82;100663.13;8620661;33;20178;-73
2022/05/10 08:25:14;;;;;;;8.30;7.25;;;;;;;22.17;43.51;100652.81;8614475;33;20536;-74
2022/05/10 08:30:18;;;;;;;9.77;8.07;;;;;;;22.48;42.09;100662.59;8603496;33;20247;-74
2022/05/10 08:35:21;;;;;;;9.65;7.78;;;;;;;22.53;42.84;100651.91;8604089;33;20148;-74
2022/05/10 08:40:31;;;;;;;8.43;7.53;;;;;;;23.08;42.47;100650.25;8586890;33;20171;-74
2022/05/10 08:45:40;;;;;;;9.40;7.00;;;;;;;22.33;42.86;100644.34;8621928;33;20645;-74
2022/05/10 08:50:48;;;;;;;8.73;7.50;;;;;;;22.72;42.31;100637.56;8584658;33;20452;-74
2022/05/10 08:55:57;;;;;;;9.57;7.47;;;;;;;22.97;42.09;100635.22;8631684;33;20614;-73
2022/05/10 09:01:06;;;;;;;10.13;6.82;;;;;;;22.90;41.91;100625.25;8586180;33;20487;-74
2022/05/10 09:06:18;;;;;;;10.63;8.23;;;;;;;23.49;41.00;100629.44;8590471;33;20467;-74
2022/05/10 09:11:23;;;;;;;12.88;7.78;;;;;;;23.60;40.89;100624.22;8603238;33;20532;-75
2022/05/10 09:16:26;;;;;;;11.93;7.88;;;;;;;23.53;41.04;100611.50;8614188;28;20579;-72
2022/05/10 09:21:43;;;;;;;9.35;8.32;;;;;;;23.98;40.37;100604.53;8575667;33;21009;-72
2022/05/10 09:26:53;;;;;;;15.13;8.35;;;;;;;24.12;40.42;100602.66;8624318;33;20568;-72
2022/05/10 09:37:26;;;;;;;9.82;7.32;;;;;;;24.85;39.92;100596.34;8608700;33;20473;-72
2022/05/10 09:42:33;;;;;;;9.20;7.00;;;;;;;24.81;39.08;100589.63;8587708;33;20812;-72
2022/05/10 09:47:36;;;;;;;9.02;7.03;;;;;;;24.70;40.45;100585.59;8617908;33;20441;-72
2022/05/10 09:52:40;;;;;;;9.93;6.88;;;;;;;25.30;39.36;100569.84;8628594;33;20942;-72
2022/05/10 09:57:46;;;;;;;9.05;6.85;;;;;;;25.30;38.20;100567.09;8572762;33;20414;-72
2022/05/10 10:02:57;;;;;;;9.30;6.63;;;;;;;24.65;37.62;100555.19;8611857;33;20167;-72
2022/05/10 10:08:00;;;;;;;7.95;6.68;;;;;;;25.41;37.65;100552.66;8572072;33;20170;-72
2022/05/10 10:13:30;;;;;;;9.20;7.10;;;;;;;24.94;37.99;100562.13;8594446;33;20197;-73
2022/05/10 10:18:45;;;;;;;8.07;6.30;;;;;;;23.39;39.24;100548.44;8621095;33;20507;-72
2022/05/10 10:23:55;;;;;;;8.95;6.40;;;;;;;23.83;40.85;100554.47;8617128;33;20510;-72
2022/05/10 10:29:10;;;;;;;8.40;6.45;;;;;;;25.22;36.20;100545.34;8567832;33;20598;-72
2022/05/10 10:34:21;;;;;;;8.18;5.93;;;;;;;24.37;38.44;100531.53;8605628;33;20217;-72
2022/05/10 10:39:34;;;;;;;7.78;5.88;;;;;;;24.47;37.15;100523.75;8595856;33;20530;-72
2022/05/10 10:44:52;;;;;;;5.85;5.13;;;;;;;24.49;38.91;100516.16;8579107;33;20602;-72
2022/05/10 10:50:07;;;;;;;7.40;5.72;;;;;;;24.86;38.06;100508.25;8613993;33;20256;-72
2022/05/10 10:55:11;;;;;;;6.40;5.57;;;;;;;24.73;37.18;100500.03;8579927;33;20429;-72
2022/05/10 11:00:18;;;;;;;11.15;5.72;;;;;;;23.93;37.38;100497.31;8592318;33;20242;-72
2022/05/10 11:06:13;;;;;;;6.55;5.15;;;;;;;23.48;38.07;100509.84;8597449;33;20431;-72
2022/05/10 11:11:26;;;;;;;6.47;5.05;;;;;;;24.28;37.05;100497.13;8635361;33;20154;-72
2022/05/10 11:16:41;;;;;;;7.28;5.35;;;;;;;24.73;36.03;100472.56;8638896;33;20196;-72
2022/05/10 11:21:57;;;;;;;7.43;4.80;;;;;;;24.42;35.58;100479.59;8620827;33;20923;-72
2022/05/10 11:27:22;;;;;;;6.47;4.95;;;;;;;24.00;36.66;100478.97;8578178;33;20620;-72
2022/05/10 11:32:54;;;;;;;6.22;5.32;;;;;;;24.15;36.72;100480.66;8617503;33;20631;-72
2022/05/10 11:38:04;;;;;;;5.07;4.47;;;;;;;24.29;35.31;100476.84;8579365;33;20239;-72
2022/05/10 11:43:33;;;;;;;5.65;4.78;;;;;;;24.14;36.69;100463.34;8615186;33;20487;-72
2022/05/10 11:49:01;;;;;;;7.80;4.85;;;;;;;23.94;36.94;100462.50;8591337;33;20246;-72
2022/05/10 11:54:42;;;;;;;5.90;4.65;;;;;;;24.15;37.53;100448.56;8596242;33;20253;-72
2022/05/10 11:59:46;;;;;;;5.53;5.00;;;;;;;24.42;35.79;100454.06;8637714;33;20554;-72
2022/05/10 12:05:20;;;;;;;4.85;4.10;;;;;;;24.02;35.01;100443.09;8652994;33;20689;-72
2022/05/10 12:10:40;;;;;;;6.63;4.68;;;;;;;24.74;35.75;100422.09;8657259;33;20644;-72
2022/05/10 12:21:24;;;;;;;5.95;4.82;;;;;;;23.98;37.53;100412.50;8634176;33;20451;-72
2022/05/10 12:26:37;;;;;;;5.97;5.32;;;;;;;24.24;36.80;100406.13;8609555;33;20992;-72
2022/05/10 12:31:59;;;;;;;6.20;4.72;;;;;;;24.40;34.96;100399.38;8598194;33;20975;-72
2022/05/10 12:37:49;;;;;;;5.72;4.85;;;;;;;24.58;35.38;100401.44;8602257;33;20281;-72
2022/05/10 12:43:16;;;;;;;5.07;4.60;;;;;;;24.73;33.84;100412.16;8603255;33;21004;-71
2022/05/10 12:48:39;;;;;;;6.38;5.15;;;;;;;24.23;35.84;100403.59;8595874;33;20147;-72
2022/05/10 12:53:56;;;;;;;6.55;5.28;;;;;;;23.98;36.52;100384.22;8584360;33;20448;-72
2022/05/10 12:59:14;;;;;;;6.20;5.03;;;;;;;23.89;36.01;100394.59;8589079;33;20519;-72
2022/05/10 13:04:21;;;;;;;5.55;5.00;;;;;;;24.45;34.68;100380.34;8632309;33;20157;-72
2022/05/10 13:09:53;;;;;;;6.00;5.40;;;;;;;24.89;35.69;100386.09;8623243;33;20437;-72
2022/05/10 13:15:01;;;;;;;6.57;5.65;;;;;;;25.19;35.34;100367.97;8581031;33;20571;-72
2022/05/10 13:20:10;;;;;;;6.90;5.55;;;;;;;24.72;34.92;100369.28;8619730;33;21011;-72
2022/05/10 13:25:15;;;;;;;7.93;5.47;;;;;;;24.63;34.71;100354.09;8630146;33;20649;-72
2022/05/10 13:30:22;;;;;;;6.93;6.03;;;;;;;24.78;35.28;100359.31;8632204;33;20431;-72
2022/05/10 13:35:29;;;;;;;5.38;4.75;;;;;;;24.55;34.49;100357.94;8581383;33;20152;-72
2022/05/10 13:40:41;;;;;;;6.40;5.40;;;;;;;24.39;34.99;100344.66;8614171;33;20454;-72
2022/05/10 13:45:52;;;;;;;6.78;6.15;;;;;;;24.79;35.78;100333.53;8579798;33;20877;-72
2022/05/10 13:51:07;;;;;;;6.30;5.68;;;;;;;24.44;35.81;100331.16;8631102;33;20174;-72
2022/05/10 13:56:13;;;;;;;6.88;5.65;;;;;;;24.18;34.79;100337.53;8647685;33;20208;-72
2022/05/10 14:01:34;;;;;;;8.43;5.47;;;;;;;24.02;35.80;100322.38;8594695;33;20548;-72
2022/05/10 14:06:39;;;;;;;7.50;5.43;;;;;;;24.19;34.84;100312.66;8594355;33;20151;-72
2022/05/10 14:11:44;;;;;;;5.60;5.10;;;;;;;23.84;35.19;100317.56;8612889;33;20149;-72
2022/05/10 14:16:47;;;;;;;7.18;6.00;;;;;;;23.34;37.14;100304.28;8591927;33;21064;-72
2022/05/10 14:21:53;;;;;;;6.97;5.55;;;;;;;23.79;36.37;100282.56;8595745;33;20474;-72
2022/05/10 14:27:13;;;;;;;8.10;6.13;;;;;;;23.39;36.80;100298.16;8600936;33;20166;-72
2022/05/10 14:32:33;;;;;;;8.93;6.53;;;;;;;24.12;36.53;100289.03;8593950;33;20156;-72
2022/05/10 14:37:46;;;;;;;9.48;7.97;;;;;;;23.15;39.30;100281.31;8618834;33;20147;-72
2022/05/10 14:43:03;;;;;;;9.82;8.35;;;;;;;23.14;39.21;100271.38;8580304;33;20978;-72
2022/05/10 14:48:26;;;;;;;11.23;7.97;;;;;;;23.37;40.06;100279.22;8629681;33;20424;-72
2022/05/10 14:53:33;;;;;;;8.98;7.35;;;;;;;23.56;40.10;100269.28;8629735;33;20385;-72
2022/05/10 14:58:41;;;;;;;8.00;7.20;;;;;;;23.24;39.56;100250.97;8580642;33;20144;-72
2022/05/10 15:04:03;;;;;;;8.82;6.97;;;;;;;23.60;39.69;100237.63;8613992;33;20657;-72
2022/05/10 15:09:06;;;;;;;8.07;7.30;;;;;;;23.65;38.88;100237.00;8580125;33;20517;-72
2022/05/10 15:14:11;;;;;;;6.93;6.28;;;;;;;23.43;38.65;100237.25;8611253;28;20571;-72
2022/05/10 15:19:14;;;;;;;8.93;7.13;;;;;;;23.80;39.34;100243.09;8588509;33;20439;-71
2022/05/10 15:24:18;;;;;;;7.57;5.28;;;;;;;23.33;37.81;100223.13;8629099;33;20896;-72
2022/05/10 15:29:27;;;;;;;8.00;5.32;;;;;;;23.75;36.12;100212.72;8609837;33;20230;-71
2022/05/10 15:34:46;;;;;;;9.80;5.47;;;;;;;24.08;35.32;100201.66;8632610;33;20209;-71
2022/05/10 15:39:49;;;;;;;7.13;4.70;;;;;;;24.52;35.25;100199.97;8644992;33;20964;-71
2022/05/10 15:44:55;;;;;;;7.85;5.28;;;;;;;24.37;35.12;100190.31;8660376;33;20193;-71
2022/05/10 15:49:59;;;;;;;6.63;4.90;;;;;;;24.05;35.01;100185.63;8606010;33;20156;-71
2022/05/10 15:55:03;;;;;;;5.13;4.60;;;;;;;23.40;36.03;100180.13;8630960;33;20172;-71
2022/05/10 16:00:13;;;;;;;5.80;5.10;;;;;;;23.76;35.99;100184.25;8639369;33;21221;-72
2022/05/10 16:05:20;;;;;;;6.65;4.90;;;;;;;23.49;35.97;100180.72;8641558;33;20402;-72
2022/05/10 16:10:23;;;;;;;9.35;5.32;;;;;;;23.72;35.84;100172.00;8600315;33;20576;-71
2022/05/10 16:15:28;;;;;;;7.35;4.78;;;;;;;23.06;36.27;100174.84;8607282;33;20449;-72
2022/05/10 16:20:34;;;;;;;5.07;4.60;;;;;;;23.15;36.03;100177.19;8614070;33;20437;-71
2022/05/10 16:25:37;;;;;;;8.48;5.20;;;;;;;24.03;35.84;100163.06;8592692;33;20476;-71
2022/05/10 16:30:42;;;;;;;8.55;4.80;;;;;;;24.15;35.95;100167.84;8608987;33;20587;-72
2022/05/10 16:35:46;;;;;;;5.72;4.63;;;;;;;24.21;34.38;100150.50;8599693;33;20259;-71
2022/05/10 16:40:55;;;;;;;7.72;5.28;;;;;;;24.45;35.06;100168.13;8604755;33;21013;-71
2022/05/10 16:45:59;;;;;;;6.25;5.03;;;;;;;23.22;35.93;100160.75;8624441;33;20239;-72
2022/05/10 16:51:03;;;;;;;7.70;5.07;;;;;;;24.43;34.56;100170.25;8626363;33;20519;-72
2022/05/10 16:56:07;;;;;;;6.18;5.10;;;;;;;23.91;35.61;100158.47;8635364;33;20668;-72
2022/05/10 17:01:11;;;;;;;9.07;4.88;;;;;;;22.86;37.33;100156.53;8649334;33;20225;-72
2022/05/10 17:06:14;;;;;;;8.25;5.22;;;;;;;22.77;37.33;100147.69;8601590;33;20450;-72
2022/05/10 17:11:18;;;;;;;8.73;4.90;;;;;;;22.78;37.18;100141.16;8610010;33;21186;-72
2022/05/10 17:16:23;;;;;;;6.38;4.80;;;;;;;22.86;36.79;100147.47;8620240;33;20163;-72
2022/05/10 17:21:29;;;;;;;6.57;5.18;;;;;;;22.55;37.46;100135.25;8628057;33;20147;-72
2022/05/10 17:26:35;;;;;;;8.40;5.15;;;;;;;22.34;37.76;100138.97;8642206;33;20405;-72
2022/05/10 17:31:41;;;;;;;7.80;5.38;;;;;;;22.60;37.38;100138.22;8596579;33;20148;-72
2022/05/10 17:36:45;;;;;;;10.32;6.03;;;;;;;22.66;37.83;100142.00;8597675;33;20824;-72
2022/05/10 17:41:49;;;;;;;8.50;5.68;;;;;;;22.82;37.94;100141.59;8614505;33;20412;-73
2022/05/10 17:46:57;;;;;;;8.30;5.22;;;;;;;22.76;38.11;100137.81;8624522;33;20420;-72
2022/05/10 17:52:00;;;;;;;7.38;5.38;;;;;;;22.45;38.37;100145.75;8587598;33;20145;-72
2022/05/10 17:57:03;;;;;;;5.90;5.30;;;;;;;22.24;38.78;100135.78;8565263;33;20204;-72
2022/05/10 18:02:08;;;;;;;8.95;5.57;;;;;;;22.24;39.64;100138.53;8601548;33;20453;-72
2022/05/10 18:07:11;;;;;;;7.20;5.00;;;;;;;22.19;39.33;100130.09;8611080;33;20266;-72
2022/05/10 18:12:15;;;;;;;7.50;5.03;;;;;;;22.16;39.42;100138.72;8623896;33;20459;-72
2022/05/10 18:17:21;;;;;;;6.22;5.30;;;;;;;22.07;39.93;100141.63;8617266;33;20413;-72
2022/05/10 18:22:24;;;;;;;11.55;5.47;;;;;;;21.87;39.76;100138.84;8593806;33;20468;-72
2022/05/10 18:27:27;;;;;;;6.28;5.68;;;;;;;21.96;40.51;100144.13;8615680;33;20438;-72
2022/05/10 18:32:32;;;;;;;7.13;5.20;;;;;;;21.76;41.24;100146.78;8641460;33;20903;-72
2022/05/10 18:37:35;;;;;;;7.72;5.75;;;;;;;21.65;40.71;100145.44;8627088;33;20144;-72
2022/05/10 18:42:38;;;;;;;8.52;5.07;;;;;;;21.54;41.18;100154.22;8616433;33;20158;-72
2022/05/10 18:47:43;;;;;;;7.22;5.95;;;;;;;21.77;41.18;100146.56;8592029;33;20452;-72
2022/05/10 18:52:46;;;;;;;9.52;5.97;;;;;;;21.68;41.64;100166.91;8574713;33;20583;-73
2022/05/10 18:57:51;;;;;;;7.68;5.78;;;;;;;21.42;42.65;100165.72;8590599;33;20156;-73
2022/05/10 19:02:55;;;;;;;7.82;5.70;;;;;;;21.28;42.31;100169.38;8603697;33;20761;-72
2022/05/10 19:08:02;;;;;;;8.95;6.07;;;;;;;21.13;42.54;100166.78;8580815;33;20423;-72
2022/05/10 19:13:06;;;;;;;8.32;5.65;;;;;;;21.26;44.18;100196.09;8610925;33;20177;-72
2022/05/10 19:18:11;;;;;;;9.35;7.18;;;;;;;20.94;46.02;100200.19;8601330;33;20140;-72
2022/05/10 19:23:14;;;;;;;13.00;6.78;;;;;;;20.79;47.33;100211.22;8579689;33;20152;-72
2022/05/10 19:28:17;;;;;;;13.85;8.02;;;;;;;20.37;48.71;100218.31;8628667;33;20715;-72
2022/05/10 19:33:21;;;;;;;10.68;7.32;;;;;;;20.09;49.88;100229.91;8624409;33;20217;-73
2022/05/10 19:38:25;;;;;;;10.55;8.02;;;;;;;19.58;55.09;100254.38;8613989;33;20156;-72
2022/05/10 19:43:28;;;;;;;11.43;7.90;;;;;;;18.60;61.49;100285.06;8602677;33;20422;-72
2022/05/10 19:48:33;;;;;;;11.90;8.55;;;;;;;18.44;62.66;100288.72;8596908;33;20566;-72
2022/05/10 19:53:36;;;;;;;13.60;8.77;;;;;;;18.18;62.72;100291.72;8594788;33;20443;-72
2022/05/10 19:58:40;;;;;;;9.68;7.70;;;;;;;18.07;63.16;100297.56;8618302;33;20532;-72
2022/05/10 20:09:19;;;;;;;12.60;7.75;;;;;;;17.88;63.18;100290.63;8508562;33;20207;-72
2022/05/10 20:14:22;;;;;;;14.60;8.32;;;;;;;17.93;63.39;100299.09;8629699;33;20241;-72
2022/05/10 20:19:27;;;;;;;13.02;8.10;;;;;;;17.97;61.78;100307.75;8601412;33;20175;-72
2022/05/10 20:24:30;;;;;;;13.63;8.18;;;;;;;18.01;60.93;100273.78;8598112;33;20157;-72
2022/05/10 20:29:34;;;;;;;9.93;7.82;;;;;;;17.92;59.81;100303.69;8610050;33;20242;-72
2022/05/10 20:34:58;;;;;;;11.20;7.15;;;;;;;17.94;58.28;100281.78;8596517;33;20495;-72
2022/05/10 20:40:02;;;;;;;10.38;5.82;;;;;;;17.89;55.00;100293.16;8645705;33;20409;-72
2022/05/10 20:45:08;;;;;;;9.70;4.90;;;;;;;17.86;53.55;100290.81;8632600;33;20160;-72
2022/05/10 20:50:15;;;;;;;9.43;5.47;;;;;;;17.86;53.09;100279.94;8637189;33;20416;-72
2022/05/10 20:55:22;;;;;;;6.80;4.55;;;;;;;17.95;52.52;100296.22;8621792;33;20423;-72
2022/05/10 21:00:25;;;;;;;8.75;4.85;;;;;;;18.01;51.63;100284.66;8598767;33;20418;-72
2022/05/10 21:05:30;;;;;;;4.93;4.10;;;;;;;17.74;51.64;100307.63;8600062;33;20524;-72
2022/05/10 21:10:33;;;;;;;7.22;4.60;;;;;;;17.75;52.02;100282.19;8609654;33;20293;-72
2022/05/10 21:15:37;;;;;;;6.32;4.18;;;;;;;17.93;51.60;100280.06;8612136;33;20462;-72
2022/05/10 21:21:01;;;;;;;5.63;4.25;;;;;;;17.93;51.94;100275.47;8638646;28;20291;-72
2022/05/10 21:27:06;;;;;;;6.85;4.93;;;;;;;17.86;51.61;100279.09;8617673;33;20147;-71
2022/05/10 21:31:46;;;;;;;6.45;3.97;;;;;;;17.78;51.70;100276.41;8633386;33;20519;-72
2022/05/10 21:36:57;;;;;;;6.88;4.65;;;;;;;17.72;51.91;100275.22;8632699;33;20424;-72
2022/05/10 21:42:00;;;;;;;7.63;4.88;;;;;;;17.64;52.30;100278.81;8627336;33;20418;-71
2022/05/10 21:47:04;;;;;;;7.72;4.97;;;;;;;17.52;52.93;100282.03;8627122;33;20541;-72
2022/05/10 21:52:09;;;;;;;10.38;4.70;;;;;;;16.99;60.30;100265.25;8615318;33;21227;-72
2022/05/10 21:57:12;;;;;;;7.57;5.15;;;;;;;16.37;62.76;100262.94;8601977;33;20148;-72
2022/05/10 22:02:15;;;;;;;8.60;5.40;;;;;;;16.39;63.14;100249.25;8608295;33;20206;-72
2022/05/10 22:07:20;;;;;;;7.20;5.73;;;;;;;16.57;61.77;100255.38;8608443;33;20651;-72
2022/05/10 22:12:23;;;;;;;11.30;5.72;;;;;;;16.74;59.49;100246.25;8605549;33;20207;-72
2022/05/10 22:17:26;;;;;;;8.90;6.10;;;;;;;16.95;58.74;100256.63;8621601;33;20241;-72
2022/05/10 22:22:30;;;;;;;6.82;5.20;;;;;;;17.02;57.63;100270.34;8640139;33;20144;-72
2022/05/10 22:27:34;;;;;;;12.90;7.15;;;;;;;16.99;56.65;100279.66;8595005;33;21330;-72
2022/05/10 22:32:38;;;;;;;12.98;6.60;;;;;;;17.09;55.80;100273.25;8601601;33;20144;-72
2022/05/10 22:37:43;;;;;;;8.10;6.18;;;;;;;16.97;56.13;100270.00;8600029;33;20543;-72
2022/05/10 22:42:46;;;;;;;12.48;5.97;;;;;;;16.81;54.87;100289.81;8615074;33;20407;-72
2022/05/10 22:47:50;;;;;;;9.20;5.85;;;;;;;16.57;56.51;100287.91;8621309;33;20428;-72
2022/05/10 22:52:55;;;;;;;9.70;5.82;;;;;;;16.61;57.96;100250.47;8620719;33;20507;-72
2022/05/10 22:57:58;;;;;;;8.85;5.90;;;;;;;16.65;55.86;100258.13;8582438;33;20520;-72
2022/05/10 23:03:01;;;;;;;8.70;5.57;;;;;;;16.43;59.19;100262.31;8623202;33;20147;-72
2022/05/10 23:08:07;;;;;;;11.95;6.10;;;;;;;16.70;57.78;100254.88;8624472;33;20439;-72
2022/05/10 23:13:10;;;;;;;8.73;5.95;;;;;;;16.79;56.76;100243.03;8610061;33;20150;-72
2022/05/10 23:18:13;;;;;;;9.43;5.32;;;;;;;16.48;56.08;100235.56;8602166;33;20151;-71
2022/05/10 23:23:17;;;;;;;7.20;4.72;;;;;;;16.48;53.39;100232.84;8581839;33;20148;-71
2022/05/10 23:28:20;;;;;;;12.93;4.72;;;;;;;16.71;53.64;100226.75;8624885;33;20426;-72
2022/05/10 23:33:23;;;;;;;6.45;4.53;;;;;;;16.60;54.55;100222.50;8602910;33;20921;-72
2022/05/10 23:38:28;;;;;;;10.32;4.78;;;;;;;16.45;54.98;100197.06;8615157;33;21144;-72
2022/05/10 23:48:51;;;;;;;7.63;5.65;;;;;;;16.46;56.47;100191.47;8598307;33;20626;-72
2022/05/10 23:53:57;;;;;;;7.95;5.10;;;;;;;16.41;57.26;100201.97;8606215;33;20444;-72
2022/05/10 23:59:00;;;;;;;6.15;4.82;;;;;;;16.02;57.86;100201.69;8612569;33;20676;-72
